sensor_id;sensor_type;location;lat;lon;timestamp;pressure;altitude;pressure_sealevel;temperature;humidity
32452;BME280;45528;52.102;5.242;2023-06-26T00:02:14;100838.0;;;29.34;46.45
32452;BME280;45528;52.102;5.242;2023-06-26T00:03:50;100833.0;;;29.29;46.54
32452;BME280;45528;52.102;5.242;2023-06-26T00:05:26;100840.0;;;29.28;46.42
32452;BME280;45528;52.102;5.242;2023-06-26T00:08:40;100841.0;;;29.33;46.01
32452;BME280;45528;52.102;5.242;2023-06-26T00:10:17;100838.0;;;29.32;46.31
32452;BME280;45528;52.102;5.242;2023-06-26T00:11:53;100841.0;;;29.47;45.59
32452;BME280;45528;52.102;5.242;2023-06-26T00:15:06;100844.0;;;29.5;46.0
32452;BME280;45528;52.102;5.242;2023-06-26T00:16:42;100842.0;;;29.44;45.57
32452;BME280;45528;52.102;5.242;2023-06-26T00:18:19;100836.0;;;29.4;46.02
32452;BME280;45528;52.102;5.242;2023-06-26T00:19:55;100836.0;;;29.43;46.14
32452;BME280;45528;52.102;5.242;2023-06-26T00:23:11;100830.0;;;29.37;46.41
32452;BME280;45528;52.102;5.242;2023-06-26T00:24:48;100820.0;;;29.33;46.65
32452;BME280;45528;52.102;5.242;2023-06-26T00:26:25;100819.0;;;29.25;46.91
32452;BME280;45528;52.102;5.242;2023-06-26T00:29:38;100817.0;;;29.24;46.87
32452;BME280;45528;52.102;5.242;2023-06-26T00:31:15;100817.0;;;29.25;46.29
32452;BME280;45528;52.102;5.242;2023-06-26T00:32:51;100816.0;;;29.17;47.13
32452;BME280;45528;52.102;5.242;2023-06-26T00:36:03;100814.0;;;29.13;47.05
32452;BME280;45528;52.102;5.242;2023-06-26T00:37:40;100812.0;;;29.05;47.21
32452;BME280;45528;52.102;5.242;2023-06-26T00:39:16;100812.0;;;29.02;47.21
32452;BME280;45528;52.102;5.242;2023-06-26T00:40:53;100811.0;;;28.98;47.33
32452;BME280;45528;52.102;5.242;2023-06-26T00:44:05;100809.0;;;28.94;47.21
32452;BME280;45528;52.102;5.242;2023-06-26T00:45:42;100805.0;;;28.9;47.4
32452;BME280;45528;52.102;5.242;2023-06-26T00:47:18;100798.0;;;28.81;47.74
32452;BME280;45528;52.102;5.242;2023-06-26T00:50:35;100805.0;;;28.79;47.84
32452;BME280;45528;52.102;5.242;2023-06-26T00:52:11;100811.0;;;28.75;47.77
32452;BME280;45528;52.102;5.242;2023-06-26T00:53:48;100815.0;;;28.74;47.98
32452;BME280;45528;52.102;5.242;2023-06-26T00:55:25;100820.0;;;28.85;47.66
32452;BME280;45528;52.102;5.242;2023-06-26T00:58:40;100828.0;;;28.89;47.61
32452;BME280;45528;52.102;5.242;2023-06-26T01:00:17;100835.0;;;28.96;47.49
32452;BME280;45528;52.102;5.242;2023-06-26T01:01:54;100837.0;;;29.04;47.32
32452;BME280;45528;52.102;5.242;2023-06-26T01:05:07;100839.0;;;29.06;47.03
32452;BME280;45528;52.102;5.242;2023-06-26T01:06:44;100836.0;;;29.09;46.9
32452;BME280;45528;52.102;5.242;2023-06-26T01:08:22;100834.0;;;29.16;46.87
32452;BME280;45528;52.102;5.242;2023-06-26T01:11:37;100832.0;;;29.35;46.13
32452;BME280;45528;52.102;5.242;2023-06-26T01:13:14;100835.0;;;29.25;46.56
32452;BME280;45528;52.102;5.242;2023-06-26T01:14:51;100838.0;;;29.27;46.33
32452;BME280;45528;52.102;5.242;2023-06-26T01:16:29;100844.0;;;29.29;46.02
32452;BME280;45528;52.102;5.242;2023-06-26T01:19:43;100848.0;;;29.28;46.03
32452;BME280;45528;52.102;5.242;2023-06-26T01:21:20;100849.0;;;29.34;45.67
32452;BME280;45528;52.102;5.242;2023-06-26T01:23:02;100863.0;;;29.35;45.25
32452;BME280;45528;52.102;5.242;2023-06-26T01:24:51;100863.0;;;29.36;45.1
32452;BME280;45528;52.102;5.242;2023-06-26T01:28:16;100859.0;;;29.15;45.54
32452;BME280;45528;52.102;5.242;2023-06-26T01:29:55;100864.0;;;29.19;45.49
32452;BME280;45528;52.102;5.242;2023-06-26T01:31:32;100861.0;;;29.12;45.35
32452;BME280;45528;52.102;5.242;2023-06-26T01:33:11;100865.0;;;29.03;45.45
32452;BME280;45528;52.102;5.242;2023-06-26T01:36:27;100866.0;;;29.1;45.81
32452;BME280;45528;52.102;5.242;2023-06-26T01:38:13;100869.0;;;29.05;45.7
32452;BME280;45528;52.102;5.242;2023-06-26T01:39:52;100870.0;;;29.03;45.64
32452;BME280;45528;52.102;5.242;2023-06-26T01:41:28;100869.0;;;29.06;45.87
32452;BME280;45528;52.102;5.242;2023-06-26T01:44:52;100866.0;;;29.04;45.69
32452;BME280;45528;52.102;5.242;2023-06-26T01:46:37;100863.0;;;29.07;45.5
32452;BME280;45528;52.102;5.242;2023-06-26T01:48:23;100860.0;;;29.04;45.28
32452;BME280;45528;52.102;5.242;2023-06-26T01:50:06;100872.0;;;29.11;45.37
32452;BME280;45528;52.102;5.242;2023-06-26T01:53:33;100861.0;;;28.97;45.54
32452;BME280;45528;52.102;5.242;2023-06-26T01:55:22;100866.0;;;28.98;45.42
32452;BME280;45528;52.102;5.242;2023-06-26T01:57:04;100865.0;;;28.82;45.78
32452;BME280;45528;52.102;5.242;2023-06-26T01:58:44;100860.0;;;28.76;46.07
32452;BME280;45528;52.102;5.242;2023-06-26T02:00:23;100868.0;;;28.83;45.85
32452;BME280;45528;52.102;5.242;2023-06-26T02:03:37;100872.0;;;28.75;46.34
32452;BME280;45528;52.102;5.242;2023-06-26T02:05:13;100872.0;;;28.71;46.5
32452;BME280;45528;52.102;5.242;2023-06-26T02:06:50;100867.0;;;28.76;46.38
32452;BME280;45528;52.102;5.242;2023-06-26T02:10:05;100860.0;;;28.72;46.48
32452;BME280;45528;52.102;5.242;2023-06-26T02:11:42;100865.0;;;28.57;46.99
32452;BME280;45528;52.102;5.242;2023-06-26T02:13:18;100870.0;;;28.46;47.2
32452;BME280;45528;52.102;5.242;2023-06-26T02:16:31;100870.0;;;28.46;47.28
32452;BME280;45528;52.102;5.242;2023-06-26T02:18:08;100868.0;;;28.58;46.98
32452;BME280;45528;52.102;5.242;2023-06-26T02:19:44;100869.0;;;28.49;47.31
32452;BME280;45528;52.102;5.242;2023-06-26T02:21:20;100875.0;;;28.38;47.73
32452;BME280;45528;52.102;5.242;2023-06-26T02:24:32;100874.0;;;28.47;47.56
32452;BME280;45528;52.102;5.242;2023-06-26T02:26:08;100866.0;;;28.33;47.9
32452;BME280;45528;52.102;5.242;2023-06-26T02:27:44;100875.0;;;28.35;47.78
32452;BME280;45528;52.102;5.242;2023-06-26T02:30:57;100880.0;;;28.4;47.81
32452;BME280;45528;52.102;5.242;2023-06-26T02:32:33;100880.0;;;28.0;48.6
32452;BME280;45528;52.102;5.242;2023-06-26T02:34:09;100881.0;;;28.25;48.15
32452;BME280;45528;52.102;5.242;2023-06-26T02:37:22;100876.0;;;28.17;48.38
32452;BME280;45528;52.102;5.242;2023-06-26T02:38:59;100889.0;;;28.11;48.58
32452;BME280;45528;52.102;5.242;2023-06-26T02:40:35;100882.0;;;28.12;48.62
32452;BME280;45528;52.102;5.242;2023-06-26T02:42:11;100876.0;;;28.13;48.52
32452;BME280;45528;52.102;5.242;2023-06-26T02:45:24;100882.0;;;28.11;48.76
32452;BME280;45528;52.102;5.242;2023-06-26T02:47:01;100883.0;;;28.04;48.85
32452;BME280;45528;52.102;5.242;2023-06-26T02:48:38;100880.0;;;28.01;49.07
32452;BME280;45528;52.102;5.242;2023-06-26T02:51:51;100886.0;;;28.07;48.89
32452;BME280;45528;52.102;5.242;2023-06-26T02:53:27;100892.0;;;28.02;49.12
32452;BME280;45528;52.102;5.242;2023-06-26T02:55:05;100893.0;;;28.14;48.82
32452;BME280;45528;52.102;5.242;2023-06-26T02:58:18;100892.0;;;28.09;49.0
32452;BME280;45528;52.102;5.242;2023-06-26T02:59:55;100891.0;;;28.15;48.81
32452;BME280;45528;52.102;5.242;2023-06-26T03:01:31;100891.0;;;28.14;48.98
32452;BME280;45528;52.102;5.242;2023-06-26T03:03:08;100896.0;;;28.01;49.3
32452;BME280;45528;52.102;5.242;2023-06-26T03:06:22;100891.0;;;27.99;49.46
32452;BME280;45528;52.102;5.242;2023-06-26T03:07:58;100898.0;;;28.04;49.26
32452;BME280;45528;52.102;5.242;2023-06-26T03:09:34;100897.0;;;27.97;49.57
32452;BME280;45528;52.102;5.242;2023-06-26T03:12:47;100900.0;;;28.05;49.3
32452;BME280;45528;52.102;5.242;2023-06-26T03:14:25;100902.0;;;28.03;49.33
32452;BME280;45528;52.102;5.242;2023-06-26T03:16:03;100900.0;;;28.0;49.42
32452;BME280;45528;52.102;5.242;2023-06-26T03:19:17;100899.0;;;27.91;49.83
32452;BME280;45528;52.102;5.242;2023-06-26T03:20:53;100900.0;;;27.91;49.9
32452;BME280;45528;52.102;5.242;2023-06-26T03:22:32;100892.0;;;27.86;50.03
32452;BME280;45528;52.102;5.242;2023-06-26T03:24:09;100897.0;;;27.91;49.83
32452;BME280;45528;52.102;5.242;2023-06-26T03:27:22;100899.0;;;27.94;49.88
32452;BME280;45528;52.102;5.242;2023-06-26T03:29:00;100901.0;;;27.91;49.93
32452;BME280;45528;52.102;5.242;2023-06-26T03:30:37;100900.0;;;27.94;49.71
32452;BME280;45528;52.102;5.242;2023-06-26T03:33:51;100898.0;;;27.9;49.84
32452;BME280;45528;52.102;5.242;2023-06-26T03:35:27;100897.0;;;27.99;49.54
32452;BME280;45528;52.102;5.242;2023-06-26T03:37:05;100911.0;;;28.03;49.52
32452;BME280;45528;52.102;5.242;2023-06-26T03:38:42;100918.0;;;28.02;49.57
32452;BME280;45528;52.102;5.242;2023-06-26T03:41:55;100925.0;;;27.94;49.82
32452;BME280;45528;52.102;5.242;2023-06-26T03:43:32;100924.0;;;27.82;50.0
32452;BME280;45528;52.102;5.242;2023-06-26T03:45:08;100926.0;;;27.75;50.02
32452;BME280;45528;52.102;5.242;2023-06-26T03:48:20;100921.0;;;27.72;49.8
32452;BME280;45528;52.102;5.242;2023-06-26T03:49:58;100924.0;;;27.73;49.65
32452;BME280;45528;52.102;5.242;2023-06-26T03:51:35;100923.0;;;27.65;49.54
32452;BME280;45528;52.102;5.242;2023-06-26T03:54:48;100930.0;;;27.65;49.34
32452;BME280;45528;52.102;5.242;2023-06-26T03:56:25;100931.0;;;27.57;49.21
32452;BME280;45528;52.102;5.242;2023-06-26T03:58:02;100939.0;;;27.66;48.86
32452;BME280;45528;52.102;5.242;2023-06-26T03:59:40;100949.0;;;27.72;48.74
32452;BME280;45528;52.102;5.242;2023-06-26T04:02:53;100938.0;;;27.54;48.75
32452;BME280;45528;52.102;5.242;2023-06-26T04:04:30;100946.0;;;27.59;48.97
32452;BME280;45528;52.102;5.242;2023-06-26T04:06:06;100952.0;;;27.49;48.93
32452;BME280;45528;52.102;5.242;2023-06-26T04:09:19;100947.0;;;27.37;49.28
32452;BME280;45528;52.102;5.242;2023-06-26T04:10:55;100944.0;;;27.36;49.24
32452;BME280;45528;52.102;5.242;2023-06-26T04:12:32;100949.0;;;27.31;49.2
32452;BME280;45528;52.102;5.242;2023-06-26T04:15:46;100944.0;;;27.2;49.42
32452;BME280;45528;52.102;5.242;2023-06-26T04:17:23;100946.0;;;27.3;49.25
32452;BME280;45528;52.102;5.242;2023-06-26T04:19:00;100955.0;;;27.26;49.46
32452;BME280;45528;52.102;5.242;2023-06-26T04:20:38;100957.0;;;27.26;49.53
32452;BME280;45528;52.102;5.242;2023-06-26T04:23:52;100957.0;;;27.29;49.4
32452;BME280;45528;52.102;5.242;2023-06-26T04:25:29;100958.0;;;27.19;49.52
32452;BME280;45528;52.102;5.242;2023-06-26T04:27:05;100959.0;;;27.29;49.47
32452;BME280;45528;52.102;5.242;2023-06-26T04:30:19;100960.0;;;27.25;49.43
32452;BME280;45528;52.102;5.242;2023-06-26T04:31:57;100964.0;;;27.25;49.66
32452;BME280;45528;52.102;5.242;2023-06-26T04:33:33;100966.0;;;27.35;49.4
32452;BME280;45528;52.102;5.242;2023-06-26T04:35:10;100965.0;;;27.34;49.37
32452;BME280;45528;52.102;5.242;2023-06-26T04:38:24;100972.0;;;27.34;49.21
32452;BME280;45528;52.102;5.242;2023-06-26T04:40:00;100986.0;;;27.21;49.45
32452;BME280;45528;52.102;5.242;2023-06-26T04:41:37;100990.0;;;27.2;49.68
32452;BME280;45528;52.102;5.242;2023-06-26T04:44:51;100993.0;;;27.26;49.3
32452;BME280;45528;52.102;5.242;2023-06-26T04:46:28;100994.0;;;27.28;49.17
32452;BME280;45528;52.102;5.242;2023-06-26T04:48:05;100999.0;;;27.31;48.87
32452;BME280;45528;52.102;5.242;2023-06-26T04:51:18;101006.0;;;27.26;48.76
32452;BME280;45528;52.102;5.242;2023-06-26T04:52:54;100999.0;;;27.21;49.06
32452;BME280;45528;52.102;5.242;2023-06-26T04:54:31;101000.0;;;27.1;49.38
32452;BME280;45528;52.102;5.242;2023-06-26T04:56:07;101005.0;;;27.18;48.88
32452;BME280;45528;52.102;5.242;2023-06-26T04:59:20;101012.0;;;27.05;49.13
32452;BME280;45528;52.102;5.242;2023-06-26T05:00:56;101012.0;;;27.07;48.71
32452;BME280;45528;52.102;5.242;2023-06-26T05:02:33;101011.0;;;26.97;49.28
32452;BME280;45528;52.102;5.242;2023-06-26T05:05:48;101013.0;;;27.11;48.86
32452;BME280;45528;52.102;5.242;2023-06-26T05:07:25;101013.0;;;27.04;49.08
32452;BME280;45528;52.102;5.242;2023-06-26T05:09:02;101014.0;;;27.07;48.88
32452;BME280;45528;52.102;5.242;2023-06-26T05:12:15;101016.0;;;27.12;48.78
32452;BME280;45528;52.102;5.242;2023-06-26T05:13:52;101021.0;;;27.03;48.88
32452;BME280;45528;52.102;5.242;2023-06-26T05:15:29;101020.0;;;27.04;48.81
32452;BME280;45528;52.102;5.242;2023-06-26T05:17:06;101023.0;;;27.13;48.48
32452;BME280;45528;52.102;5.242;2023-06-26T05:20:20;101026.0;;;27.05;48.64
32452;BME280;45528;52.102;5.242;2023-06-26T05:21:58;101030.0;;;27.07;48.69
32452;BME280;45528;52.102;5.242;2023-06-26T05:23:37;101030.0;;;27.18;48.44
32452;BME280;45528;52.102;5.242;2023-06-26T05:26:51;101030.0;;;27.21;48.74
32452;BME280;45528;52.102;5.242;2023-06-26T05:28:29;101034.0;;;27.24;48.4
32452;BME280;45528;52.102;5.242;2023-06-26T05:30:07;101028.0;;;27.02;48.48
32452;BME280;45528;52.102;5.242;2023-06-26T05:31:45;101038.0;;;27.17;48.3
32452;BME280;45528;52.102;5.242;2023-06-26T05:35:03;101035.0;;;27.14;47.96
32452;BME280;45528;52.102;5.242;2023-06-26T05:36:42;101041.0;;;27.09;48.0
32452;BME280;45528;52.102;5.242;2023-06-26T05:38:19;101043.0;;;27.41;47.52
32452;BME280;45528;52.102;5.242;2023-06-26T05:41:34;101045.0;;;27.52;47.32
32452;BME280;45528;52.102;5.242;2023-06-26T05:43:11;101051.0;;;27.61;47.27
32452;BME280;45528;52.102;5.242;2023-06-26T05:44:48;101057.0;;;27.47;47.28
32452;BME280;45528;52.102;5.242;2023-06-26T05:46:24;101057.0;;;27.57;46.64
32452;BME280;45528;52.102;5.242;2023-06-26T05:49:38;101061.0;;;27.61;46.5
32452;BME280;45528;52.102;5.242;2023-06-26T05:51:16;101063.0;;;27.78;46.26
32452;BME280;45528;52.102;5.242;2023-06-26T05:52:53;101070.0;;;27.96;45.61
32452;BME280;45528;52.102;5.242;2023-06-26T05:56:09;101075.0;;;28.04;45.55
32452;BME280;45528;52.102;5.242;2023-06-26T05:57:46;101075.0;;;27.99;45.67
32452;BME280;45528;52.102;5.242;2023-06-26T05:59:23;101076.0;;;28.01;45.65
32452;BME280;45528;52.102;5.242;2023-06-26T06:01:00;101086.0;;;28.19;45.24
32452;BME280;45528;52.102;5.242;2023-06-26T06:04:15;101092.0;;;28.01;45.64
32452;BME280;45528;52.102;5.242;2023-06-26T06:05:51;101097.0;;;28.16;45.1
32452;BME280;45528;52.102;5.242;2023-06-26T06:07:27;101092.0;;;28.17;45.34
32452;BME280;45528;52.102;5.242;2023-06-26T06:10:41;101086.0;;;28.18;45.38
32452;BME280;45528;52.102;5.242;2023-06-26T06:12:17;101098.0;;;28.11;45.21
32452;BME280;45528;52.102;5.242;2023-06-26T06:13:54;101098.0;;;28.01;45.55
32452;BME280;45528;52.102;5.242;2023-06-26T06:17:08;101111.0;;;28.09;45.57
32452;BME280;45528;52.102;5.242;2023-06-26T06:18:45;101107.0;;;27.96;45.53
32452;BME280;45528;52.102;5.242;2023-06-26T06:20:22;101111.0;;;28.11;45.36
32452;BME280;45528;52.102;5.242;2023-06-26T06:21:59;101107.0;;;28.03;45.77
32452;BME280;45528;52.102;5.242;2023-06-26T06:25:13;101114.0;;;28.38;45.49
32452;BME280;45528;52.102;5.242;2023-06-26T06:26:50;101117.0;;;28.36;45.21
32452;BME280;45528;52.102;5.242;2023-06-26T06:28:27;101120.0;;;28.13;45.38
32452;BME280;45528;52.102;5.242;2023-06-26T06:31:41;101122.0;;;28.3;45.43
32452;BME280;45528;52.102;5.242;2023-06-26T06:33:18;101134.0;;;28.01;45.79
32452;BME280;45528;52.102;5.242;2023-06-26T06:34:56;101146.0;;;28.07;46.06
32452;BME280;45528;52.102;5.242;2023-06-26T06:36:33;101147.0;;;28.39;45.59
32452;BME280;45528;52.102;5.242;2023-06-26T06:39:46;101149.0;;;28.59;45.54
32452;BME280;45528;52.102;5.242;2023-06-26T06:41:23;101149.0;;;28.77;45.09
32452;BME280;45528;52.102;5.242;2023-06-26T06:43:00;101150.0;;;28.78;44.33
32452;BME280;45528;52.102;5.242;2023-06-26T06:46:14;101153.0;;;28.95;44.57
32452;BME280;45528;52.102;5.242;2023-06-26T06:47:50;101153.0;;;29.1;44.05
32452;BME280;45528;52.102;5.242;2023-06-26T06:49:27;101165.0;;;29.03;43.91
32452;BME280;45528;52.102;5.242;2023-06-26T06:52:42;101169.0;;;29.12;44.16
32452;BME280;45528;52.102;5.242;2023-06-26T06:54:19;101168.0;;;29.11;43.83
32452;BME280;45528;52.102;5.242;2023-06-26T06:55:56;101168.0;;;28.92;44.19
32452;BME280;45528;52.102;5.242;2023-06-26T06:57:34;101150.0;;;28.54;45.23
32452;BME280;45528;52.102;5.242;2023-06-26T07:00:49;101169.0;;;28.65;45.56
32452;BME280;45528;52.102;5.242;2023-06-26T07:02:27;101167.0;;;28.23;45.87
32452;BME280;45528;52.102;5.242;2023-06-26T07:04:03;101174.0;;;28.66;44.97
32452;BME280;45528;52.102;5.242;2023-06-26T07:07:18;101175.0;;;28.74;44.85
32452;BME280;45528;52.102;5.242;2023-06-26T07:08:54;101176.0;;;28.77;45.39
32452;BME280;45528;52.102;5.242;2023-06-26T07:10:30;101187.0;;;28.83;44.93
32452;BME280;45528;52.102;5.242;2023-06-26T07:12:08;101191.0;;;28.79;44.49
32452;BME280;45528;52.102;5.242;2023-06-26T07:15:22;101198.0;;;28.71;44.87
32452;BME280;45528;52.102;5.242;2023-06-26T07:16:59;101193.0;;;28.57;45.03
32452;BME280;45528;52.102;5.242;2023-06-26T07:18:37;101203.0;;;28.0;46.05
32452;BME280;45528;52.102;5.242;2023-06-26T07:21:50;101206.0;;;28.18;45.8
32452;BME280;45528;52.102;5.242;2023-06-26T07:23:27;101201.0;;;28.15;45.51
32452;BME280;45528;52.102;5.242;2023-06-26T07:25:03;101195.0;;;28.0;46.18
32452;BME280;45528;52.102;5.242;2023-06-26T07:26:40;101196.0;;;28.04;45.62
32452;BME280;45528;52.102;5.242;2023-06-26T07:29:54;101201.0;;;28.05;46.03
32452;BME280;45528;52.102;5.242;2023-06-26T07:31:31;101201.0;;;28.15;45.58
32452;BME280;45528;52.102;5.242;2023-06-26T07:33:08;101208.0;;;28.38;45.39
32452;BME280;45528;52.102;5.242;2023-06-26T07:36:22;101205.0;;;28.73;45.13
32452;BME280;45528;52.102;5.242;2023-06-26T07:37:59;101207.0;;;28.56;44.36
32452;BME280;45528;52.102;5.242;2023-06-26T07:39:36;101215.0;;;28.74;43.96
32452;BME280;45528;52.102;5.242;2023-06-26T07:42:50;101216.0;;;28.84;43.74
32452;BME280;45528;52.102;5.242;2023-06-26T07:44:27;101212.0;;;29.01;44.08
32452;BME280;45528;52.102;5.242;2023-06-26T07:46:04;101226.0;;;29.09;43.4
32452;BME280;45528;52.102;5.242;2023-06-26T07:47:41;101221.0;;;28.71;43.72
32452;BME280;45528;52.102;5.242;2023-06-26T07:50:55;101224.0;;;28.72;43.74
32452;BME280;45528;52.102;5.242;2023-06-26T07:52:32;101235.0;;;28.94;43.29
32452;BME280;45528;52.102;5.242;2023-06-26T07:54:10;101230.0;;;28.9;43.5
32452;BME280;45528;52.102;5.242;2023-06-26T07:57:24;101239.0;;;28.75;43.62
32452;BME280;45528;52.102;5.242;2023-06-26T07:59:02;101236.0;;;28.77;43.63
32452;BME280;45528;52.102;5.242;2023-06-26T08:00:40;101231.0;;;28.88;43.53
32452;BME280;45528;52.102;5.242;2023-06-26T08:02:16;101234.0;;;28.84;43.89
32452;BME280;45528;52.102;5.242;2023-06-26T08:05:30;101232.0;;;28.91;43.87
32452;BME280;45528;52.102;5.242;2023-06-26T08:07:06;101230.0;;;28.96;43.5
32452;BME280;45528;52.102;5.242;2023-06-26T08:08:43;101238.0;;;28.73;44.12
32452;BME280;45528;52.102;5.242;2023-06-26T08:11:58;101239.0;;;28.85;43.42
32452;BME280;45528;52.102;5.242;2023-06-26T08:13:35;101235.0;;;28.63;43.98
32452;BME280;45528;52.102;5.242;2023-06-26T08:15:12;101240.0;;;28.67;43.12
32452;BME280;45528;52.102;5.242;2023-06-26T08:18:26;101241.0;;;28.8;43.27
32452;BME280;45528;52.102;5.242;2023-06-26T08:20:03;101246.0;;;28.96;43.09
32452;BME280;45528;52.102;5.242;2023-06-26T08:21:40;101245.0;;;28.88;42.92
32452;BME280;45528;52.102;5.242;2023-06-26T08:23:17;101255.0;;;28.5;43.24
32452;BME280;45528;52.102;5.242;2023-06-26T08:26:30;101246.0;;;28.92;43.93
32452;BME280;45528;52.102;5.242;2023-06-26T08:28:07;101264.0;;;28.76;42.68
32452;BME280;45528;52.102;5.242;2023-06-26T08:29:44;101270.0;;;28.86;42.2
32452;BME280;45528;52.102;5.242;2023-06-26T08:32:58;101262.0;;;28.37;42.59
32452;BME280;45528;52.102;5.242;2023-06-26T08:34:35;101272.0;;;28.66;41.08
32452;BME280;45528;52.102;5.242;2023-06-26T08:36:12;101268.0;;;28.88;41.45
32452;BME280;45528;52.102;5.242;2023-06-26T08:37:49;101266.0;;;29.06;40.71
32452;BME280;45528;52.102;5.242;2023-06-26T08:41:02;101275.0;;;29.21;41.09
32452;BME280;45528;52.102;5.242;2023-06-26T08:42:39;101269.0;;;29.25;40.97
32452;BME280;45528;52.102;5.242;2023-06-26T08:44:16;101276.0;;;29.38;40.68
32452;BME280;45528;52.102;5.242;2023-06-26T08:47:33;101288.0;;;29.38;40.04
32452;BME280;45528;52.102;5.242;2023-06-26T08:49:14;101283.0;;;29.34;39.86
32452;BME280;45528;52.102;5.242;2023-06-26T08:50:57;101289.0;;;29.42;40.07
32452;BME280;45528;52.102;5.242;2023-06-26T08:52:39;101270.0;;;29.15;39.54
32452;BME280;45528;52.102;5.242;2023-06-26T08:56:04;101274.0;;;29.09;39.92
32452;BME280;45528;52.102;5.242;2023-06-26T08:57:43;101289.0;;;28.72;40.21
32452;BME280;45528;52.102;5.242;2023-06-26T08:59:20;101299.0;;;28.55;40.61
32452;BME280;45528;52.102;5.242;2023-06-26T09:00:58;101298.0;;;29.02;40.74
32452;BME280;45528;52.102;5.242;2023-06-26T09:04:15;101301.0;;;29.04;40.81
32452;BME280;45528;52.102;5.242;2023-06-26T09:05:51;101298.0;;;29.26;40.24
32452;BME280;45528;52.102;5.242;2023-06-26T09:07:29;101312.0;;;29.04;40.14
32452;BME280;45528;52.102;5.242;2023-06-26T09:10:43;101296.0;;;29.16;40.29
32452;BME280;45528;52.102;5.242;2023-06-26T09:12:20;101303.0;;;29.28;39.53
32452;BME280;45528;52.102;5.242;2023-06-26T09:13:59;101305.0;;;29.38;39.5
32452;BME280;45528;52.102;5.242;2023-06-26T09:15:37;101313.0;;;29.39;39.68
32452;BME280;45528;52.102;5.242;2023-06-26T09:18:53;101318.0;;;29.18;39.99
32452;BME280;45528;52.102;5.242;2023-06-26T09:20:31;101320.0;;;29.19;39.76
32452;BME280;45528;52.102;5.242;2023-06-26T09:22:11;101314.0;;;29.23;39.89
32452;BME280;45528;52.102;5.242;2023-06-26T09:25:28;101314.0;;;29.34;39.35
32452;BME280;45528;52.102;5.242;2023-06-26T09:27:04;101321.0;;;29.33;39.65
32452;BME280;45528;52.102;5.242;2023-06-26T09:28:42;101321.0;;;29.41;39.33
32452;BME280;45528;52.102;5.242;2023-06-26T09:30:19;101332.0;;;29.64;38.21
32452;BME280;45528;52.102;5.242;2023-06-26T09:33:37;101332.0;;;29.27;39.29
32452;BME280;45528;52.102;5.242;2023-06-26T09:35:14;101333.0;;;29.5;38.57
32452;BME280;45528;52.102;5.242;2023-06-26T09:36:52;101332.0;;;29.8;38.14
32452;BME280;45528;52.102;5.242;2023-06-26T09:40:07;101345.0;;;30.11;37.36
32452;BME280;45528;52.102;5.242;2023-06-26T09:41:45;101341.0;;;30.01;37.35
32452;BME280;45528;52.102;5.242;2023-06-26T09:43:22;101345.0;;;29.88;37.14
32452;BME280;45528;52.102;5.242;2023-06-26T09:44:59;101344.0;;;29.77;37.12
32452;BME280;45528;52.102;5.242;2023-06-26T09:48:14;101342.0;;;29.81;36.89
32452;BME280;45528;52.102;5.242;2023-06-26T09:49:51;101353.0;;;29.68;37.31
32452;BME280;45528;52.102;5.242;2023-06-26T09:51:29;101352.0;;;29.53;36.83
32452;BME280;45528;52.102;5.242;2023-06-26T09:54:45;101355.0;;;29.72;36.87
32452;BME280;45528;52.102;5.242;2023-06-26T09:56:22;101362.0;;;29.88;37.08
32452;BME280;45528;52.102;5.242;2023-06-26T09:58:00;101353.0;;;29.58;37.82
32452;BME280;45528;52.102;5.242;2023-06-26T09:59:39;101357.0;;;29.71;37.46
32452;BME280;45528;52.102;5.242;2023-06-26T10:02:55;101363.0;;;29.57;37.21
32452;BME280;45528;52.102;5.242;2023-06-26T10:04:32;101368.0;;;29.74;37.19
32452;BME280;45528;52.102;5.242;2023-06-26T10:06:11;101376.0;;;29.92;37.04
32452;BME280;45528;52.102;5.242;2023-06-26T10:07:48;101372.0;;;29.69;36.83
32452;BME280;45528;52.102;5.242;2023-06-26T10:11:03;101378.0;;;30.1;36.56
32452;BME280;45528;52.102;5.242;2023-06-26T10:12:40;101380.0;;;29.81;36.35
32452;BME280;45528;52.102;5.242;2023-06-26T10:14:22;101383.0;;;29.47;36.68
32452;BME280;45528;52.102;5.242;2023-06-26T10:17:44;101386.0;;;29.45;37.46
32452;BME280;45528;52.102;5.242;2023-06-26T10:19:23;101384.0;;;29.52;37.06
32452;BME280;45528;52.102;5.242;2023-06-26T10:21:01;101395.0;;;29.7;36.67
32452;BME280;45528;52.102;5.242;2023-06-26T10:22:43;101392.0;;;29.71;36.5
32452;BME280;45528;52.102;5.242;2023-06-26T10:26:00;101405.0;;;29.59;36.49
32452;BME280;45528;52.102;5.242;2023-06-26T10:27:40;101401.0;;;29.76;36.07
32452;BME280;45528;52.102;5.242;2023-06-26T10:29:20;101407.0;;;29.38;36.42
32452;BME280;45528;52.102;5.242;2023-06-26T10:31:00;101410.0;;;29.58;36.21
32452;BME280;45528;52.102;5.242;2023-06-26T10:34:17;101413.0;;;29.64;36.68
32452;BME280;45528;52.102;5.242;2023-06-26T10:36:12;101408.0;;;29.55;36.92
32452;BME280;45528;52.102;5.242;2023-06-26T10:37:50;101402.0;;;29.55;36.42
32452;BME280;45528;52.102;5.242;2023-06-26T10:39:45;101397.0;;;29.89;36.37
32452;BME280;45528;52.102;5.242;2023-06-26T10:41:23;101398.0;;;29.69;35.6
32452;BME280;45528;52.102;5.242;2023-06-26T10:44:47;101406.0;;;29.75;35.49
32452;BME280;45528;52.102;5.242;2023-06-26T10:46:24;101403.0;;;29.85;34.53
32452;BME280;45528;52.102;5.242;2023-06-26T10:48:03;101402.0;;;29.81;35.01
32452;BME280;45528;52.102;5.242;2023-06-26T10:49:46;101412.0;;;29.88;35.1
32452;BME280;45528;52.102;5.242;2023-06-26T10:53:23;101414.0;;;29.34;35.0
32452;BME280;45528;52.102;5.242;2023-06-26T10:55:00;101417.0;;;29.59;35.99
32452;BME280;45528;52.102;5.242;2023-06-26T10:56:42;101423.0;;;29.55;35.72
32452;BME280;45528;52.102;5.242;2023-06-26T10:58:40;101410.0;;;29.43;35.89
32452;BME280;45528;52.102;5.242;2023-06-26T11:00:19;101427.0;;;29.35;35.01
32452;BME280;45528;52.102;5.242;2023-06-26T11:03:37;101430.0;;;29.63;35.37
32452;BME280;45528;52.102;5.242;2023-06-26T11:05:24;101426.0;;;29.81;35.4
32452;BME280;45528;52.102;5.242;2023-06-26T11:07:14;101422.0;;;30.05;35.14